createdAt,value
2022-09-12T00:01:11.841Z,98563.41
2022-09-12T00:04:13.277Z,98560.78
2022-09-12T00:07:14.595Z,98562.53
2022-09-12T00:10:15.974Z,98553.84
2022-09-12T00:13:17.351Z,98554.69
2022-09-12T00:16:23.072Z,98552.06
2022-09-12T00:19:24.459Z,98548.63
2022-09-12T00:22:25.779Z,98551.25
2022-09-12T00:25:27.449Z,98550.44
2022-09-12T00:28:28.804Z,98543.50
2022-09-12T00:31:30.248Z,98552.22
2022-09-12T00:34:31.615Z,98547.84
2022-09-12T00:37:33.205Z,98548.75
2022-09-12T00:40:34.553Z,98549.63
2022-09-12T00:43:35.867Z,98544.41
2022-09-12T00:46:55.938Z,98540.06
2022-09-12T00:50:07.785Z,98533.94
2022-09-12T00:53:09.147Z,98537.44
2022-09-12T00:56:10.501Z,98528.72
2022-09-12T00:59:12.875Z,98525.28
2022-09-12T01:02:14.587Z,98520.94
2022-09-12T01:05:15.978Z,98514.88
2022-09-12T01:08:17.313Z,98515.72
2022-09-12T01:11:18.675Z,98510.47
2022-09-12T01:14:20.112Z,98509.63
2022-09-12T01:17:21.603Z,98502.72
2022-09-12T01:20:29.226Z,98503.56
2022-09-12T01:23:36.583Z,98495.75
2022-09-12T01:26:37.990Z,98497.50
2022-09-12T01:29:45.432Z,98495.78
2022-09-12T01:32:55.614Z,98490.56
2022-09-12T01:36:01.146Z,98488.84
2022-09-12T01:39:03.733Z,98490.50
2022-09-12T01:42:05.039Z,98489.72
2022-09-12T01:45:09.390Z,98481.94
2022-09-12T01:48:20.297Z,98492.34
2022-09-12T01:51:29.846Z,98486.28
2022-09-12T01:54:36.669Z,98481.94
2022-09-12T01:57:41.169Z,98488.88
2022-09-12T02:00:44.337Z,98481.97
2022-09-12T02:03:53.184Z,98480.25
2022-09-12T02:07:14.729Z,98480.25
2022-09-12T02:10:16.852Z,98472.44
2022-09-12T02:13:19.195Z,98473.31
2022-09-12T02:16:31.864Z,98469.81
2022-09-12T02:19:34.339Z,98467.19
2022-09-12T02:22:35.926Z,98469.81
2022-09-12T02:25:37.999Z,98462.84
2022-09-12T02:28:40.150Z,98466.38
2022-09-12T02:31:48.353Z,98455.94
2022-09-12T02:34:51.595Z,98455.94
2022-09-12T02:37:53.132Z,98455.94
2022-09-12T02:40:54.527Z,98460.31
2022-09-12T02:43:55.862Z,98457.69
2022-09-12T02:46:59.081Z,98455.97
2022-09-12T02:50:00.429Z,98462.03
2022-09-12T02:53:04.882Z,98452.47
2022-09-12T02:56:07.488Z,98458.56
2022-09-12T02:59:09.170Z,98449.88
2022-09-12T03:02:13.630Z,98442.91
2022-09-12T03:05:17.059Z,98448.13
2022-09-12T03:08:24.475Z,98453.31
2022-09-12T03:11:35.301Z,98452.50
2022-09-12T03:14:47.458Z,98455.09
2022-09-12T03:17:57.920Z,98459.47
2022-09-12T03:21:04.118Z,98450.75
2022-09-12T03:24:17.400Z,98444.69
2022-09-12T03:27:19.968Z,98455.13
2022-09-12T03:30:21.312Z,98444.69
2022-09-12T03:33:23.053Z,98450.78
2022-09-12T03:36:25.331Z,98453.41
2022-09-12T03:39:27.900Z,98449.94
2022-09-12T03:42:29.223Z,98443.84
2022-09-12T03:45:30.579Z,98444.72
2022-09-12T03:48:31.952Z,98444.72
2022-09-12T03:51:33.262Z,98445.59
2022-09-12T03:54:34.584Z,98451.63
2022-09-12T03:57:35.915Z,98437.75
2022-09-12T04:00:38.568Z,98446.47
2022-09-12T04:03:40.369Z,98445.63
2022-09-12T04:06:42.919Z,98442.16
2022-09-12T04:09:44.224Z,98446.53
2022-09-12T04:12:45.588Z,98438.69
2022-09-12T04:15:55.743Z,98436.06
2022-09-12T04:18:57.104Z,98437.81
2022-09-12T04:21:58.470Z,98435.22
2022-09-12T04:24:59.785Z,98438.69
2022-09-12T04:28:01.142Z,98436.94
2022-09-12T04:31:03.959Z,98434.34
2022-09-12T04:34:05.562Z,98437.84
2022-09-12T04:37:06.925Z,98434.34
2022-09-12T04:40:08.669Z,98436.97
2022-09-12T04:43:14.219Z,98432.66
2022-09-12T04:46:16.672Z,98428.25
2022-09-12T04:49:19.338Z,98430.88
2022-09-12T04:52:20.919Z,98423.97
2022-09-12T04:55:22.315Z,98423.94
2022-09-12T04:58:23.654Z,98423.09
2022-09-12T05:01:26.359Z,98431.78
2022-09-12T05:04:27.695Z,98431.78
2022-09-12T05:07:29.733Z,98430.91
2022-09-12T05:10:31.117Z,98426.59
2022-09-12T05:13:32.435Z,98431.78
2022-09-12T05:16:33.769Z,98426.56
2022-09-12T05:19:35.172Z,98431.78
2022-09-12T05:22:36.481Z,98425.66
2022-09-12T05:25:37.779Z,98432.59
2022-09-12T05:28:39.154Z,98428.28
2022-09-12T05:31:40.825Z,98436.06
2022-09-12T05:34:42.133Z,98433.47
2022-09-12T05:37:43.455Z,98434.31
2022-09-12T05:40:44.754Z,98430.00
2022-09-12T05:43:46.199Z,98436.06
2022-09-12T05:46:50.765Z,98442.13
2022-09-12T05:49:52.484Z,98438.63
2022-09-12T05:52:54.976Z,98444.72
2022-09-12T05:56:25.608Z,98444.69
2022-09-12T05:59:28.403Z,98445.53
2022-09-12T06:02:29.743Z,98438.56
2022-09-12T06:05:33.179Z,98438.47
2022-09-12T06:08:35.072Z,98441.91
2022-09-12T06:11:37.321Z,98446.25
2022-09-12T06:14:38.921Z,98442.72
2022-09-12T06:17:40.286Z,98443.53
2022-09-12T06:20:41.595Z,98433.88
2022-09-12T06:23:43.001Z,98432.94
2022-09-12T06:26:44.367Z,98425.94
2022-09-12T06:29:45.979Z,98431.97
2022-09-12T06:32:47.342Z,98434.56
2022-09-12T06:35:48.648Z,98435.41
2022-09-12T06:39:00.803Z,98425.78
2022-09-12T06:42:02.154Z,98429.19
2022-09-12T06:45:03.575Z,98429.97
2022-09-12T06:48:05.702Z,98422.00
2022-09-12T06:51:07.657Z,98417.47
2022-09-12T06:54:09.193Z,98417.38
2022-09-12T06:57:10.555Z,98419.91
2022-09-12T07:00:12.338Z,98419.75
2022-09-12T07:03:13.836Z,98417.91
2022-09-12T07:06:15.799Z,98416.88
2022-09-12T07:09:17.186Z,98419.50
2022-09-12T07:12:18.509Z,98410.66
2022-09-12T07:15:19.833Z,98411.38
2022-09-12T07:18:21.509Z,98411.28
2022-09-12T07:21:22.945Z,98407.59
2022-09-12T07:24:24.294Z,98404.75
2022-09-12T07:27:25.761Z,98408.13
2022-09-12T07:30:27.114Z,98412.31
2022-09-12T07:33:28.563Z,98412.06
2022-09-12T07:36:29.897Z,98413.50
2022-09-12T07:39:31.259Z,98419.34
2022-09-12T07:42:32.607Z,98419.94
2022-09-12T07:45:34.016Z,98424.94
2022-09-12T07:48:35.427Z,98429.06
2022-09-12T07:51:37.349Z,98427.03
2022-09-12T07:54:38.781Z,98430.19
2022-09-12T07:57:40.371Z,98435.09
2022-09-12T08:00:42.370Z,98443.44
2022-09-12T08:03:44.213Z,98452.59
2022-09-12T08:06:45.577Z,98454.81
2022-09-12T08:09:47.402Z,98455.25
2022-09-12T08:12:48.755Z,98462.47
2022-09-12T08:15:50.127Z,98468.53
2022-09-12T08:18:51.712Z,98464.41
2022-09-12T08:21:53.099Z,98466.97
2022-09-12T08:24:54.446Z,98473.44
2022-09-12T08:27:56.079Z,98471.00
2022-09-12T08:31:04.427Z,98479.44
2022-09-12T08:34:05.775Z,98482.09
2022-09-12T08:37:07.089Z,98482.97
2022-09-12T08:40:09.577Z,98492.91
2022-09-12T08:43:26.663Z,98493.09
2022-09-12T08:46:30.967Z,98490.78
2022-09-12T08:49:33.823Z,98489.78
2022-09-12T08:52:35.125Z,98488.81
2022-09-12T08:55:37.268Z,98481.16
2022-09-12T08:58:39.957Z,98484.44
2022-09-12T09:01:42.598Z,98484.09
2022-09-12T09:04:46.727Z,98494.16
2022-09-12T09:07:51.196Z,98486.91
2022-09-12T09:11:11.428Z,98469.38
2022-09-12T09:14:31.582Z,98480.81
2022-09-12T09:17:32.865Z,98482.28
2022-09-12T09:20:40.101Z,98460.50
2022-09-12T09:23:42.696Z,98464.22
2022-09-12T09:26:56.493Z,98462.94
2022-09-12T09:29:57.864Z,98460.97
2022-09-12T09:33:00.066Z,98448.00
2022-09-12T09:36:12.154Z,98463.16
2022-09-12T09:39:32.398Z,98446.13
2022-09-12T09:42:33.882Z,98439.78
2022-09-12T09:45:35.236Z,98427.97
2022-09-12T09:48:37.139Z,98430.91
2022-09-12T09:51:39.151Z,98432.06
2022-09-12T09:54:50.261Z,98430.50
2022-09-12T09:57:53.119Z,98426.22
2022-09-12T10:00:58.045Z,98442.78
2022-09-12T10:03:59.838Z,98450.56
2022-09-12T10:07:01.614Z,98391.13
2022-09-12T10:10:18.812Z,98439.56
2022-09-12T10:13:56.918Z,98423.72
2022-09-12T10:16:58.337Z,98415.06
2022-09-12T10:20:19.913Z,98354.66
2022-09-12T10:23:23.932Z,98376.19
2022-09-12T10:26:25.250Z,98376.38
2022-09-12T10:29:31.379Z,98339.00
2022-09-12T10:32:37.627Z,98344.19
2022-09-12T10:35:46.119Z,98365.00
2022-09-12T10:38:54.643Z,98396.25
2022-09-12T10:41:55.984Z,98369.81
2022-09-12T10:44:57.278Z,98359.78
2022-09-12T10:48:02.109Z,98371.03
2022-09-12T10:51:05.597Z,98407.28
2022-09-12T10:54:08.549Z,98378.50
2022-09-12T10:57:09.860Z,98337.41
2022-09-12T11:00:20.055Z,98382.41
2022-09-12T11:03:30.652Z,98358.81
2022-09-12T11:06:35.310Z,98328.69
2022-09-12T11:09:54.793Z,98359.53
2022-09-12T11:13:22.710Z,98355.22
2022-09-12T11:16:24.108Z,98321.34
2022-09-12T11:19:34.521Z,98333.88
2022-09-12T11:22:54.785Z,98401.09
2022-09-12T11:26:11.307Z,98352.31
2022-09-12T11:29:12.629Z,98383.69
2022-09-12T11:32:22.663Z,98396.97
2022-09-12T11:35:30.946Z,98368.25
2022-09-12T11:38:32.246Z,98380.16
2022-09-12T11:41:34.986Z,98359.97
2022-09-12T11:44:46.268Z,98347.28
2022-09-12T11:47:52.373Z,98346.31
2022-09-12T11:50:53.711Z,98315.19
2022-09-12T11:54:00.296Z,98310.03
2022-09-12T11:57:24.918Z,98340.25
2022-09-12T12:00:32.897Z,98350.16
2022-09-12T12:03:39.567Z,98332.09
2022-09-12T12:06:52.291Z,98318.69
2022-09-12T12:09:54.710Z,98322.66
2022-09-12T12:12:57.034Z,98322.31
2022-09-12T12:15:59.501Z,98312.13
2022-09-12T12:19:01.302Z,98340.56
2022-09-12T12:22:16.575Z,98318.88
2022-09-12T12:25:21.403Z,98299.59
2022-09-12T12:28:42.090Z,98321.91
2022-09-12T12:31:59.118Z,98352.03
2022-09-12T12:35:23.597Z,98325.84
2022-09-12T12:38:31.018Z,98350.53
2022-09-12T12:41:35.352Z,98357.72
2022-09-12T12:44:47.157Z,98350.47
2022-09-12T12:47:52.184Z,98337.25
2022-09-12T12:50:53.529Z,98338.81
2022-09-12T12:53:54.847Z,98330.28
2022-09-12T12:57:22.618Z,98321.03
2022-09-12T13:00:23.915Z,98345.81
2022-09-12T13:03:27.870Z,98341.91
2022-09-12T13:06:33.817Z,98332.78
2022-09-12T13:09:45.378Z,98327.88
2022-09-12T13:12:47.169Z,98319.50
2022-09-12T13:15:49.353Z,98304.09
2022-09-12T13:18:50.712Z,98301.78
2022-09-12T13:21:55.570Z,98314.81
2022-09-12T13:24:56.870Z,98306.72
2022-09-12T13:28:15.938Z,98312.53
2022-09-12T13:31:20.063Z,98312.97
2022-09-12T13:34:24.936Z,98301.50
2022-09-12T13:37:26.225Z,98287.06
2022-09-12T13:40:29.015Z,98286.56
2022-09-12T13:43:36.122Z,98282.44
2022-09-12T13:46:37.627Z,98286.31
2022-09-12T13:49:39.423Z,98287.28
2022-09-12T13:52:40.776Z,98283.28
2022-09-12T13:55:49.876Z,98280.84
2022-09-12T13:59:01.125Z,98261.91
2022-09-12T14:02:02.541Z,98252.25
2022-09-12T14:05:11.625Z,98258.41
2022-09-12T14:08:14.417Z,98245.69
2022-09-12T14:11:21.210Z,98241.06
2022-09-12T14:14:32.854Z,98255.84
2022-09-12T14:17:35.597Z,98231.38
2022-09-12T14:20:37.753Z,98231.38
2022-09-12T14:23:41.114Z,98238.81
2022-09-12T14:26:42.462Z,98236.50
2022-09-12T14:29:44.061Z,98218.00
2022-09-12T14:33:01.784Z,98228.75
2022-09-12T14:36:10.703Z,98248.09
2022-09-12T14:39:31.543Z,98233.84
2022-09-12T14:42:32.923Z,98240.44
2022-09-12T14:45:34.268Z,98250.63
2022-09-12T14:48:36.414Z,98241.09
2022-09-12T14:51:39.036Z,98253.44
2022-09-12T14:54:42.452Z,98255.06
2022-09-12T14:57:45.175Z,98252.19
2022-09-12T15:00:52.713Z,98246.56
2022-09-12T15:03:54.769Z,98241.13
2022-09-12T15:06:56.343Z,98244.00
2022-09-12T15:09:58.127Z,98244.94
2022-09-12T15:13:05.628Z,98230.50
2022-09-12T15:16:07.876Z,98225.66
2022-09-12T15:19:09.719Z,98225.44
2022-09-12T15:22:11.895Z,98217.28
2022-09-12T15:25:13.332Z,98229.78
2022-09-12T15:28:21.334Z,98229.41
2022-09-12T15:31:25.034Z,98218.28
2022-09-12T15:34:26.480Z,98223.31
2022-09-12T15:37:27.973Z,98215.00
2022-09-12T15:40:29.271Z,98215.31
2022-09-12T15:43:30.615Z,98214.47
2022-09-12T15:46:32.153Z,98214.66
2022-09-12T15:49:33.552Z,98219.63
2022-09-12T15:52:34.922Z,98217.44
2022-09-12T15:55:37.323Z,98216.81
2022-09-12T15:58:49.755Z,98213.69
2022-09-12T16:01:59.040Z,98221.03
2022-09-12T16:05:00.391Z,98222.84
2022-09-12T16:08:01.784Z,98218.25
2022-09-12T16:11:04.422Z,98217.94
2022-09-12T16:14:05.991Z,98217.94
2022-09-12T16:17:07.820Z,98211.47
2022-09-12T16:20:09.608Z,98217.28
2022-09-12T16:23:11.779Z,98212.88
2022-09-12T16:26:13.122Z,98206.28
2022-09-12T16:29:14.716Z,98209.25
2022-09-12T16:32:16.296Z,98204.16
2022-09-12T16:35:17.826Z,98202.16
2022-09-12T16:38:19.188Z,98209.00
2022-09-12T16:41:21.150Z,98213.47
2022-09-12T16:44:22.484Z,98208.53
2022-09-12T16:47:23.836Z,98209.72
2022-09-12T16:50:25.178Z,98207.63
2022-09-12T16:53:26.530Z,98209.28
2022-09-12T16:56:27.946Z,98212.41
2022-09-12T16:59:29.258Z,98220.91
2022-09-12T17:02:30.644Z,98214.69
2022-09-12T17:05:31.984Z,98216.94
2022-09-12T17:08:33.678Z,98217.25
2022-09-12T17:11:38.692Z,98217.72
2022-09-12T17:14:40.011Z,98216.38
2022-09-12T17:17:41.378Z,98216.00
2022-09-12T17:20:42.688Z,98218.50
2022-09-12T17:23:44.004Z,98215.09
2022-09-12T17:26:45.728Z,98217.59
2022-09-12T17:29:47.022Z,98209.25
2022-09-12T17:32:48.400Z,98208.59
2022-09-12T17:35:49.753Z,98208.94
2022-09-12T17:38:51.771Z,98213.06
2022-09-12T17:41:54.609Z,98207.38
2022-09-12T17:44:58.278Z,98202.88
2022-09-12T17:47:59.635Z,98213.78
2022-09-12T17:51:10.447Z,98216.72
2022-09-12T17:54:12.898Z,98217.19
2022-09-12T17:57:14.270Z,98213.75
2022-09-12T18:00:15.645Z,98216.47
2022-09-12T18:03:18.470Z,98220.56
2022-09-12T18:06:19.816Z,98217.81
2022-09-12T18:09:21.969Z,98224.25
2022-09-12T18:12:23.287Z,98221.97
2022-09-12T18:15:25.230Z,98215.94
2022-09-12T18:18:26.554Z,98218.84
2022-09-12T18:21:28.679Z,98217.47
2022-09-12T18:24:29.992Z,98216.03
2022-09-12T18:27:31.359Z,98223.56
2022-09-12T18:30:32.678Z,98232.59
2022-09-12T18:33:33.985Z,98225.03
2022-09-12T18:36:35.329Z,98231.41
2022-09-12T18:39:37.087Z,98224.75
2022-09-12T18:42:38.505Z,98235.13
2022-09-12T18:45:39.872Z,98230.69
2022-09-12T18:48:41.282Z,98244.31
2022-09-12T18:51:42.625Z,98234.88
2022-09-12T18:54:43.944Z,98230.72
2022-09-12T18:57:45.408Z,98232.13
2022-09-12T19:00:48.351Z,98225.13
2022-09-12T19:03:49.774Z,98220.47
2022-09-12T19:06:51.104Z,98220.03
2022-09-12T19:09:52.474Z,98227.72
2022-09-12T19:12:53.810Z,98221.88
2022-09-12T19:15:55.180Z,98218.53
2022-09-12T19:18:56.588Z,98218.75
2022-09-12T19:21:57.907Z,98224.88
2022-09-12T19:24:59.287Z,98217.00
2022-09-12T19:28:00.634Z,98222.13
2022-09-12T19:31:06.169Z,98217.50
2022-09-12T19:34:07.795Z,98210.88
2022-09-12T19:37:09.156Z,98209.47
2022-09-12T19:40:10.497Z,98207.09
2022-09-12T19:43:11.969Z,98208.81
2022-09-12T19:46:22.698Z,98214.88
2022-09-12T19:49:24.754Z,98212.38
2022-09-12T19:52:26.083Z,98214.03
2022-09-12T19:55:27.434Z,98214.94
2022-09-12T19:58:29.213Z,98213.47
2022-09-12T20:01:30.716Z,98214.03
2022-09-12T20:04:32.198Z,98218.38
2022-09-12T20:07:33.511Z,98208.63
2022-09-12T20:10:34.801Z,98212.75
2022-09-12T20:13:36.187Z,98204.47
2022-09-12T20:16:37.595Z,98206.78
2022-09-12T20:19:38.968Z,98207.06
2022-09-12T20:22:40.426Z,98204.78
2022-09-12T20:25:42.049Z,98209.34
2022-09-12T20:28:43.439Z,98208.59
2022-09-12T20:31:44.819Z,98211.16
2022-09-12T20:34:46.189Z,98219.03
2022-09-12T20:37:47.515Z,98214.03
2022-09-12T20:40:48.916Z,98210.47
2022-09-12T20:43:51.174Z,98212.94
2022-09-12T20:46:52.663Z,98212.09
2022-09-12T20:49:54.063Z,98212.50
2022-09-12T20:52:55.443Z,98194.53
2022-09-12T20:55:56.812Z,98192.03
2022-09-12T20:58:58.286Z,98190.44
2022-09-12T21:01:59.799Z,98186.28
2022-09-12T21:05:01.367Z,98193.41
2022-09-12T21:08:02.689Z,98179.38
2022-09-12T21:11:04.360Z,98175.78
2022-09-12T21:14:05.713Z,98170.53
2022-09-12T21:17:07.233Z,98170.28
2022-09-12T21:20:11.416Z,98166.97
2022-09-12T21:23:13.046Z,98166.13
2022-09-12T21:26:14.394Z,98157.38
2022-09-12T21:29:16.058Z,98145.06
2022-09-12T21:32:17.701Z,98149.38
2022-09-12T21:35:18.993Z,98152.34
2022-09-12T21:38:20.345Z,98141.38
2022-09-12T21:41:21.715Z,98142.06
2022-09-12T21:44:23.089Z,98150.84
2022-09-12T21:47:24.560Z,98146.69
2022-09-12T21:50:26.092Z,98144.13
2022-09-12T21:53:27.488Z,98149.25
2022-09-12T21:56:28.832Z,98160.50
2022-09-12T21:59:30.170Z,98168.63
2022-09-12T22:02:31.578Z,98164.13
2022-09-12T22:05:33.575Z,98160.03
2022-09-12T22:08:35.127Z,98159.59
2022-09-12T22:11:36.455Z,98164.94
2022-09-12T22:14:38.782Z,98168.63
2022-09-12T22:17:40.358Z,98161.69
2022-09-12T22:20:41.706Z,98166.84
2022-09-12T22:24:01.698Z,98163.25
2022-09-12T22:27:03.953Z,98158.06
2022-09-12T22:30:06.036Z,98158.25
2022-09-12T22:33:07.351Z,98156.53
2022-09-12T22:36:09.715Z,98161.63
2022-09-12T22:39:11.150Z,98150.16
2022-09-12T22:42:12.491Z,98149.34
2022-09-12T22:45:14.005Z,98144.34
2022-09-12T22:48:16.861Z,98150.53
2022-09-12T22:51:18.860Z,98148.88
2022-09-12T22:54:20.169Z,98139.22
2022-09-12T22:57:21.540Z,98138.25
2022-09-12T23:00:23.585Z,98135.66
2022-09-12T23:03:24.961Z,98144.53
2022-09-12T23:06:26.493Z,98144.72
2022-09-12T23:09:30.962Z,98139.69
2022-09-12T23:12:34.633Z,98141.41
2022-09-12T23:15:35.953Z,98133.53
2022-09-12T23:18:37.339Z,98134.38
2022-09-12T23:21:38.633Z,98131.94
2022-09-12T23:24:39.958Z,98144.25
2022-09-12T23:27:42.813Z,98132.09
2022-09-12T23:30:44.124Z,98121.75
2022-09-12T23:33:45.509Z,98122.44
2022-09-12T23:36:46.868Z,98111.03
2022-09-12T23:39:49.615Z,98110.34
2022-09-12T23:42:51.039Z,98105.97
2022-09-12T23:45:52.415Z,98109.50
2022-09-12T23:48:53.784Z,98103.34
2022-09-12T23:51:55.240Z,98113.94
2022-09-12T23:54:56.700Z,98123.59
2022-09-12T23:57:58.023Z,98113.91
